createdAt,value
2023-02-22T00:00:53.358Z,56.28
2023-02-22T00:03:26.709Z,56.68
2023-02-22T00:06:01.966Z,58.52
2023-02-22T00:08:31.405Z,59.92
2023-02-22T00:11:00.449Z,61.14
2023-02-22T00:13:28.513Z,61.95
2023-02-22T00:15:56.607Z,63.55
2023-02-22T00:18:23.765Z,60.88
2023-02-22T00:20:50.763Z,56.71
2023-02-22T00:23:21.257Z,57.00
2023-02-22T00:25:50.126Z,58.73
2023-02-22T00:28:18.508Z,59.97
2023-02-22T00:30:45.585Z,61.06
2023-02-22T00:33:13.886Z,62.05
2023-02-22T00:35:41.233Z,63.63
2023-02-22T00:38:08.055Z,61.34
2023-02-22T00:40:35.131Z,56.95
2023-02-22T00:43:04.529Z,57.17
2023-02-22T00:45:34.992Z,58.98
2023-02-22T00:48:03.584Z,60.55
2023-02-22T00:50:31.945Z,61.77
2023-02-22T00:53:01.046Z,63.54
2023-02-22T00:55:31.589Z,61.02
2023-02-22T00:58:00.792Z,56.63
2023-02-22T01:00:35.882Z,57.09
2023-02-22T01:03:04.390Z,58.97
2023-02-22T01:05:32.534Z,60.48
2023-02-22T01:08:01.083Z,61.79
2023-02-22T01:10:30.498Z,63.57
2023-02-22T01:12:58.078Z,61.10
2023-02-22T01:15:30.114Z,56.81
2023-02-22T01:17:59.111Z,57.21
2023-02-22T01:20:27.503Z,58.97
2023-02-22T01:22:57.030Z,60.48
2023-02-22T01:25:27.740Z,61.72
2023-02-22T01:27:55.748Z,63.33
2023-02-22T01:30:30.224Z,61.03
2023-02-22T01:32:57.366Z,56.65
2023-02-22T01:35:28.832Z,57.15
2023-02-22T01:37:57.441Z,59.02
2023-02-22T01:40:32.088Z,60.58
2023-02-22T01:43:03.059Z,61.62
2023-02-22T01:45:29.597Z,63.37
2023-02-22T01:48:19.186Z,61.10
2023-02-22T01:51:11.623Z,56.57
2023-02-22T01:53:45.915Z,57.53
2023-02-22T01:56:13.577Z,59.12
2023-02-22T01:58:49.822Z,60.47
2023-02-22T02:01:17.864Z,60.87
2023-02-22T02:03:45.042Z,61.66
2023-02-22T02:06:14.052Z,63.85
2023-02-22T02:08:55.749Z,62.18
2023-02-22T02:11:25.185Z,57.73
2023-02-22T02:13:54.573Z,57.58
2023-02-22T02:16:36.247Z,59.32
2023-02-22T02:19:03.716Z,60.73
2023-02-22T02:21:49.228Z,61.88
2023-02-22T02:25:30.230Z,63.58
2023-02-22T02:28:23.708Z,59.70
2023-02-22T02:31:35.280Z,55.31
2023-02-22T02:34:14.445Z,57.34
2023-02-22T02:37:05.378Z,59.28
2023-02-22T02:39:43.254Z,60.73
2023-02-22T02:42:15.035Z,61.84
2023-02-22T02:45:09.348Z,63.32
2023-02-22T02:47:41.942Z,61.88
2023-02-22T02:50:33.423Z,57.14
2023-02-22T02:53:04.525Z,57.44
2023-02-22T02:55:31.310Z,59.48
2023-02-22T02:57:58.817Z,61.05
2023-02-22T03:00:31.001Z,62.32
2023-02-22T03:03:29.234Z,63.90
2023-02-22T03:06:07.895Z,60.06
2023-02-22T03:08:43.541Z,56.56
2023-02-22T03:11:22.199Z,57.94
2023-02-22T03:14:08.475Z,59.96
2023-02-22T03:16:49.589Z,61.68
2023-02-22T03:19:38.617Z,63.37
2023-02-22T03:22:20.610Z,60.37
2023-02-22T03:25:06.513Z,56.52
2023-02-22T03:27:49.043Z,58.14
2023-02-22T03:30:32.823Z,60.19
2023-02-22T03:33:08.477Z,61.92
2023-02-22T03:35:49.523Z,63.60
2023-02-22T03:38:19.107Z,60.58
2023-02-22T03:40:50.369Z,56.52
2023-02-22T03:43:24.258Z,57.40
2023-02-22T03:45:51.189Z,59.46
2023-02-22T03:48:32.509Z,61.25
2023-02-22T03:51:00.369Z,62.35
2023-02-22T03:53:27.089Z,62.74
2023-02-22T03:55:55.096Z,59.10
2023-02-22T03:58:22.581Z,56.64
2023-02-22T04:00:52.423Z,58.75
2023-02-22T04:03:20.952Z,61.02
2023-02-22T04:05:48.051Z,62.85
2023-02-22T04:08:15.424Z,62.62
2023-02-22T04:10:42.460Z,58.92
2023-02-22T04:13:10.075Z,56.70
2023-02-22T04:15:37.208Z,58.60
2023-02-22T04:18:05.062Z,60.61
2023-02-22T04:20:31.722Z,62.19
2023-02-22T04:22:58.275Z,63.74
2023-02-22T04:25:24.821Z,60.86
2023-02-22T04:27:51.537Z,56.83
2023-02-22T04:30:19.005Z,57.49
2023-02-22T04:32:45.887Z,59.69
2023-02-22T04:35:12.562Z,61.60
2023-02-22T04:37:39.377Z,63.40
2023-02-22T04:40:07.666Z,61.05
2023-02-22T04:42:35.826Z,56.86
2023-02-22T04:45:04.237Z,57.78
2023-02-22T04:47:34.699Z,59.94
2023-02-22T04:50:02.021Z,61.77
2023-02-22T04:52:28.635Z,63.52
2023-02-22T04:54:55.170Z,60.82
2023-02-22T04:57:22.297Z,56.79
2023-02-22T04:59:50.444Z,58.21
2023-02-22T05:02:17.892Z,60.62
2023-02-22T05:04:44.938Z,62.76
2023-02-22T05:07:11.656Z,63.01
2023-02-22T05:09:38.293Z,59.28
2023-02-22T05:12:05.222Z,56.71
2023-02-22T05:14:32.302Z,58.58
2023-02-22T05:16:59.521Z,60.82
2023-02-22T05:19:26.134Z,62.78
2023-02-22T05:21:53.109Z,62.87
2023-02-22T05:24:19.624Z,58.71
2023-02-22T05:26:46.275Z,56.46
2023-02-22T05:29:13.804Z,58.79
2023-02-22T05:31:41.307Z,60.85
2023-02-22T05:34:08.432Z,62.44
2023-02-22T05:36:35.181Z,63.62
2023-02-22T05:39:01.800Z,60.08
2023-02-22T05:41:28.565Z,56.57
2023-02-22T05:43:55.217Z,57.98
2023-02-22T05:46:21.738Z,60.30
2023-02-22T05:48:48.290Z,62.26
2023-02-22T05:51:15.109Z,63.44
2023-02-22T05:53:42.020Z,59.84
2023-02-22T05:56:08.747Z,56.60
2023-02-22T05:58:35.333Z,58.39
2023-02-22T06:01:03.345Z,60.67
2023-02-22T06:03:30.079Z,62.23
2023-02-22T06:05:57.390Z,63.96
2023-02-22T06:08:23.955Z,61.00
2023-02-22T06:10:50.441Z,56.92
2023-02-22T06:13:17.141Z,57.70
2023-02-22T06:15:43.737Z,60.03
2023-02-22T06:18:10.431Z,62.06
2023-02-22T06:20:36.984Z,63.93
2023-02-22T06:23:03.489Z,61.19
2023-02-22T06:25:31.221Z,57.08
2023-02-22T06:27:59.738Z,57.89
2023-02-22T06:30:27.784Z,60.32
2023-02-22T06:32:54.430Z,62.20
2023-02-22T06:35:21.430Z,64.34
2023-02-22T06:37:48.042Z,61.92
2023-02-22T06:40:15.148Z,57.91
2023-02-22T06:42:41.774Z,58.18
2023-02-22T06:45:08.978Z,60.43
2023-02-22T06:47:40.738Z,62.67
2023-02-22T06:50:18.428Z,63.33
2023-02-22T06:52:47.046Z,59.27
2023-02-22T06:55:22.456Z,56.79
2023-02-22T06:57:49.312Z,58.71
2023-02-22T07:00:18.318Z,60.61
2023-02-22T07:02:46.044Z,63.12
2023-02-22T07:05:12.807Z,62.17
2023-02-22T07:07:40.034Z,58.29
2023-02-22T07:10:14.613Z,58.12
2023-02-22T07:12:41.132Z,60.54
2023-02-22T07:15:08.008Z,62.80
2023-02-22T07:17:34.808Z,62.07
2023-02-22T07:20:01.435Z,58.94
2023-02-22T07:22:28.144Z,57.42
2023-02-22T07:24:54.714Z,59.68
2023-02-22T07:27:22.054Z,62.11
2023-02-22T07:29:49.224Z,63.96
2023-02-22T07:32:15.817Z,61.23
2023-02-22T07:34:42.616Z,57.64
2023-02-22T07:37:09.164Z,58.36
2023-02-22T07:39:37.300Z,60.46
2023-02-22T07:42:04.362Z,62.40
2023-02-22T07:44:30.949Z,64.39
2023-02-22T07:46:57.514Z,61.36
2023-02-22T07:49:24.056Z,57.33
2023-02-22T07:51:50.747Z,58.13
2023-02-22T07:54:17.344Z,60.65
2023-02-22T07:56:48.443Z,62.17
2023-02-22T07:59:15.898Z,63.68
2023-02-22T08:01:42.568Z,60.93
2023-02-22T08:04:09.303Z,57.77
2023-02-22T08:06:36.122Z,57.79
2023-02-22T08:09:03.022Z,59.76
2023-02-22T08:11:29.771Z,61.88
2023-02-22T08:13:56.405Z,63.47
2023-02-22T08:16:23.036Z,59.61
2023-02-22T08:18:49.654Z,57.43
2023-02-22T08:21:16.924Z,59.02
2023-02-22T08:23:43.946Z,60.69
2023-02-22T08:26:14.992Z,62.81
2023-02-22T08:28:42.558Z,59.53
2023-02-22T08:31:09.316Z,58.14
2023-02-22T08:33:36.247Z,60.16
2023-02-22T08:36:03.369Z,61.50
2023-02-22T08:38:32.023Z,63.14
2023-02-22T08:40:58.692Z,60.82
2023-02-22T08:43:25.961Z,56.00
2023-02-22T08:45:53.567Z,57.42
2023-02-22T08:48:21.173Z,59.74
2023-02-22T08:50:47.855Z,61.05
2023-02-22T08:53:15.990Z,62.22
2023-02-22T08:55:43.329Z,62.08
2023-02-22T08:58:10.415Z,57.31
2023-02-22T09:00:39.460Z,58.12
2023-02-22T09:03:09.678Z,59.71
2023-02-22T09:05:37.091Z,61.20
2023-02-22T09:08:04.291Z,62.09
2023-02-22T09:10:33.825Z,62.40
2023-02-22T09:13:00.784Z,58.93
2023-02-22T09:15:28.373Z,55.87
2023-02-22T09:17:55.509Z,57.39
2023-02-22T09:20:24.702Z,58.64
2023-02-22T09:22:52.598Z,59.76
2023-02-22T09:25:20.348Z,60.64
2023-02-22T09:27:52.710Z,61.09
2023-02-22T09:30:24.313Z,61.07
2023-02-22T09:32:54.199Z,61.17
2023-02-22T09:35:28.618Z,61.50
2023-02-22T09:37:57.975Z,61.42
2023-02-22T09:40:30.575Z,61.66
2023-02-22T09:43:21.407Z,61.65
2023-02-22T09:46:20.761Z,61.56
2023-02-22T09:49:19.780Z,61.48
2023-02-22T09:52:04.315Z,62.00
2023-02-22T09:54:39.441Z,61.16
2023-02-22T09:57:35.381Z,55.70
2023-02-22T10:00:17.440Z,56.35
2023-02-22T10:02:56.737Z,56.68
2023-02-22T10:05:28.913Z,57.41
2023-02-22T10:08:07.951Z,58.03
2023-02-22T10:10:38.673Z,57.82
2023-02-22T10:14:06.077Z,57.37
2023-02-22T10:17:07.999Z,57.29
2023-02-22T10:20:13.007Z,57.85
2023-02-22T10:22:57.064Z,58.31
2023-02-22T10:25:27.792Z,57.99
2023-02-22T10:28:11.718Z,57.42
2023-02-22T10:30:43.854Z,57.18
2023-02-22T10:33:19.675Z,57.09
2023-02-22T10:35:47.452Z,57.71
2023-02-22T10:38:22.829Z,58.38
2023-02-22T10:41:18.378Z,59.10
2023-02-22T10:43:45.512Z,59.24
2023-02-22T10:46:17.795Z,59.32
2023-02-22T10:48:48.245Z,59.39
2023-02-22T10:51:15.106Z,59.61
2023-02-22T10:53:41.649Z,59.92
2023-02-22T10:56:20.779Z,60.14
2023-02-22T10:58:49.133Z,60.38
2023-02-22T11:01:37.692Z,60.43
2023-02-22T11:04:18.181Z,60.43
2023-02-22T11:06:48.290Z,60.05
2023-02-22T11:09:23.734Z,59.94
2023-02-22T11:12:09.607Z,59.84
2023-02-22T11:14:36.451Z,59.99
2023-02-22T11:17:08.116Z,60.32
2023-02-22T11:19:37.606Z,60.27
2023-02-22T11:22:07.374Z,60.02
2023-02-22T11:24:48.406Z,60.22
2023-02-22T11:27:39.303Z,59.17
2023-02-22T11:30:32.519Z,58.74
2023-02-22T11:33:12.081Z,58.98
2023-02-22T11:35:57.610Z,58.43
2023-02-22T11:38:36.292Z,57.44
2023-02-22T11:41:14.787Z,56.70
2023-02-22T11:43:47.204Z,56.53
2023-02-22T11:46:18.483Z,54.90
2023-02-22T11:49:07.772Z,55.61
2023-02-22T11:51:40.625Z,54.92
2023-02-22T11:54:47.153Z,55.34
2023-02-22T11:57:36.776Z,55.08
2023-02-22T12:00:44.867Z,54.83
2023-02-22T12:03:36.483Z,54.41
2023-02-22T12:06:15.084Z,54.39
2023-02-22T12:08:55.299Z,54.75
2023-02-22T12:11:52.802Z,54.39
2023-02-22T12:15:03.295Z,54.05
2023-02-22T12:18:00.001Z,52.83
2023-02-22T12:20:45.328Z,52.03
2023-02-22T12:23:15.153Z,51.97
2023-02-22T12:25:57.922Z,52.20
2023-02-22T12:28:37.980Z,52.69
2023-02-22T12:31:29.205Z,51.80
2023-02-22T12:34:27.606Z,52.40
2023-02-22T12:37:07.337Z,52.66
2023-02-22T12:39:57.356Z,52.76
2023-02-22T12:42:47.206Z,52.84
2023-02-22T12:45:29.977Z,53.20
2023-02-22T12:48:07.327Z,53.68
2023-02-22T12:50:34.672Z,53.21
2023-02-22T12:53:19.339Z,53.22
2023-02-22T12:56:27.349Z,53.52
2023-02-22T12:58:59.949Z,53.25
2023-02-22T13:01:32.511Z,53.08
2023-02-22T13:04:05.745Z,53.31
2023-02-22T13:07:08.285Z,53.44
2023-02-22T13:10:12.195Z,53.50
2023-02-22T13:13:26.255Z,53.41
2023-02-22T13:15:56.829Z,53.81
2023-02-22T13:18:39.207Z,54.39
2023-02-22T13:21:21.076Z,54.47
2023-02-22T13:24:04.062Z,54.77
2023-02-22T13:27:15.564Z,54.75
2023-02-22T13:29:47.937Z,55.10
2023-02-22T13:32:32.693Z,55.40
2023-02-22T13:35:44.586Z,55.90
2023-02-22T13:38:29.080Z,56.08
2023-02-22T13:41:35.179Z,56.35
2023-02-22T13:44:35.736Z,56.70
2023-02-22T13:47:20.100Z,57.23
2023-02-22T13:49:59.310Z,57.29
2023-02-22T13:52:29.330Z,57.68
2023-02-22T13:55:10.224Z,57.67
2023-02-22T13:57:47.879Z,58.06
2023-02-22T14:00:14.465Z,57.85
2023-02-22T14:03:08.679Z,58.35
2023-02-22T14:05:35.605Z,58.84
2023-02-22T14:08:02.295Z,58.58
2023-02-22T14:11:00.287Z,58.94
2023-02-22T14:13:28.980Z,59.27
2023-02-22T14:16:04.522Z,59.34
2023-02-22T14:18:41.902Z,59.69
2023-02-22T14:21:15.712Z,60.04
2023-02-22T14:23:55.958Z,60.03
2023-02-22T14:26:28.807Z,60.18
2023-02-22T14:28:59.599Z,60.40
2023-02-22T14:31:37.659Z,60.39
2023-02-22T14:34:14.796Z,60.42
2023-02-22T14:36:52.195Z,61.38
2023-02-22T14:39:45.399Z,61.27
2023-02-22T14:42:27.440Z,61.39
2023-02-22T14:45:08.809Z,61.48
2023-02-22T14:48:00.428Z,61.87
2023-02-22T14:50:41.465Z,62.77
2023-02-22T14:53:40.199Z,58.77
2023-02-22T14:56:13.856Z,56.49
2023-02-22T14:58:41.555Z,57.26
2023-02-22T15:01:58.329Z,58.04
2023-02-22T15:04:30.593Z,58.86
2023-02-22T15:07:00.632Z,59.55
2023-02-22T15:09:36.735Z,60.49
2023-02-22T15:12:03.350Z,60.48
2023-02-22T15:14:36.977Z,60.88
2023-02-22T15:17:13.616Z,61.39
2023-02-22T15:19:41.317Z,61.49
2023-02-22T15:22:29.556Z,61.84
2023-02-22T15:25:03.249Z,61.71
2023-02-22T15:27:36.241Z,61.90
2023-02-22T15:30:26.003Z,62.06
2023-02-22T15:33:03.558Z,62.12
2023-02-22T15:35:32.891Z,62.56
2023-02-22T15:38:13.752Z,62.07
2023-02-22T15:40:42.578Z,56.51
2023-02-22T15:43:23.721Z,56.65
2023-02-22T15:45:51.626Z,58.23
2023-02-22T15:48:20.342Z,59.94
2023-02-22T15:51:13.184Z,60.45
2023-02-22T15:53:49.128Z,60.73
2023-02-22T15:56:26.397Z,61.32
2023-02-22T15:59:05.574Z,61.64
2023-02-22T16:01:44.142Z,62.19
2023-02-22T16:04:23.610Z,62.76
2023-02-22T16:06:55.025Z,58.41
2023-02-22T16:09:25.428Z,55.42
2023-02-22T16:12:09.686Z,56.41
2023-02-22T16:14:37.006Z,58.33
2023-02-22T16:17:28.129Z,59.19
2023-02-22T16:19:55.153Z,59.99
2023-02-22T16:22:35.503Z,60.64
2023-02-22T16:25:17.278Z,60.94
2023-02-22T16:27:48.810Z,62.48
2023-02-22T16:30:25.494Z,61.23
2023-02-22T16:32:55.732Z,57.09
2023-02-22T16:35:27.893Z,56.44
2023-02-22T16:38:01.581Z,57.72
2023-02-22T16:40:43.892Z,58.94
2023-02-22T16:43:14.333Z,60.09
2023-02-22T16:45:43.601Z,60.73
2023-02-22T16:48:32.218Z,61.70
2023-02-22T16:51:16.738Z,62.11
2023-02-22T16:53:43.993Z,63.25
2023-02-22T16:56:15.689Z,59.09
2023-02-22T16:58:42.753Z,55.07
2023-02-22T17:01:11.854Z,56.29
2023-02-22T17:03:38.832Z,58.27
2023-02-22T17:06:06.198Z,59.50
2023-02-22T17:08:32.813Z,60.22
2023-02-22T17:11:00.142Z,61.29
2023-02-22T17:13:28.601Z,62.63
2023-02-22T17:15:56.798Z,60.66
2023-02-22T17:18:27.804Z,56.63
2023-02-22T17:20:54.597Z,56.94
2023-02-22T17:23:22.562Z,58.64
2023-02-22T17:26:03.834Z,60.29
2023-02-22T17:28:31.557Z,61.18
2023-02-22T17:31:00.630Z,62.10
2023-02-22T17:33:32.253Z,63.08
2023-02-22T17:36:01.219Z,57.67
2023-02-22T17:38:29.541Z,57.40
2023-02-22T17:40:58.329Z,59.17
2023-02-22T17:43:27.204Z,60.25
2023-02-22T17:45:54.107Z,61.06
2023-02-22T17:48:22.907Z,62.96
2023-02-22T17:50:51.437Z,60.84
2023-02-22T17:53:21.191Z,55.57
2023-02-22T17:55:48.406Z,56.08
2023-02-22T17:58:15.617Z,57.84
2023-02-22T18:00:46.356Z,59.59
2023-02-22T18:03:20.804Z,60.87
2023-02-22T18:05:50.251Z,62.37
2023-02-22T18:08:16.929Z,60.45
2023-02-22T18:10:44.442Z,56.76
2023-02-22T18:13:17.287Z,58.12
2023-02-22T18:15:45.668Z,59.77
2023-02-22T18:18:12.849Z,61.22
2023-02-22T18:20:50.728Z,62.63
2023-02-22T18:23:21.656Z,59.08
2023-02-22T18:26:07.568Z,57.25
2023-02-22T18:28:35.594Z,58.98
2023-02-22T18:31:13.648Z,60.84
2023-02-22T18:33:42.625Z,62.51
2023-02-22T18:36:12.772Z,62.09
2023-02-22T18:38:44.072Z,57.07
2023-02-22T18:41:14.091Z,57.13
2023-02-22T18:43:41.353Z,58.55
2023-02-22T18:46:10.936Z,59.87
2023-02-22T18:48:38.391Z,61.34
2023-02-22T18:51:09.233Z,62.69
2023-02-22T18:53:37.360Z,61.70
2023-02-22T18:56:07.090Z,57.93
2023-02-22T18:58:35.373Z,57.07
2023-02-22T19:01:03.159Z,58.75
2023-02-22T19:03:31.731Z,60.16
2023-02-22T19:06:03.252Z,61.67
2023-02-22T19:08:31.864Z,63.24
2023-02-22T19:11:08.561Z,59.23
2023-02-22T19:13:36.488Z,57.57
2023-02-22T19:16:06.504Z,59.32
2023-02-22T19:18:33.249Z,60.98
2023-02-22T19:21:03.213Z,62.21
2023-02-22T19:23:34.288Z,63.51
2023-02-22T19:26:03.729Z,60.52
2023-02-22T19:28:33.452Z,55.99
2023-02-22T19:31:30.508Z,56.89
2023-02-22T19:34:08.231Z,59.87
2023-02-22T19:36:38.513Z,62.12
2023-02-22T19:39:05.252Z,62.11
2023-02-22T19:41:31.903Z,57.95
2023-02-22T19:43:58.957Z,57.77
2023-02-22T19:46:25.701Z,59.95
2023-02-22T19:48:54.738Z,62.25
2023-02-22T19:51:25.635Z,62.23
2023-02-22T19:53:53.719Z,58.02
2023-02-22T19:56:26.398Z,57.00
2023-02-22T19:58:55.469Z,59.11
2023-02-22T20:01:32.347Z,61.69
2023-02-22T20:04:03.025Z,62.89
2023-02-22T20:06:39.432Z,59.21
2023-02-22T20:09:08.779Z,57.65
2023-02-22T20:11:35.514Z,59.90
2023-02-22T20:14:05.671Z,62.31
2023-02-22T20:16:34.150Z,62.31
2023-02-22T20:19:00.836Z,58.27
2023-02-22T20:21:31.207Z,56.63
2023-02-22T20:24:04.561Z,59.25
2023-02-22T20:26:33.622Z,61.36
2023-02-22T20:29:03.281Z,62.70
2023-02-22T20:31:30.793Z,62.32
2023-02-22T20:34:02.144Z,58.28
2023-02-22T20:36:30.199Z,58.54
2023-02-22T20:38:58.987Z,61.05
2023-02-22T20:41:32.076Z,62.99
2023-02-22T20:44:00.417Z,60.25
2023-02-22T20:46:30.869Z,56.71
2023-02-22T20:49:00.160Z,58.49
2023-02-22T20:51:28.104Z,60.96
2023-02-22T20:53:59.189Z,62.63
2023-02-22T20:56:28.792Z,62.82
2023-02-22T20:59:01.429Z,58.79
2023-02-22T21:01:28.785Z,58.69
2023-02-22T21:04:03.119Z,61.05
2023-02-22T21:06:30.358Z,62.54
2023-02-22T21:08:59.529Z,59.91
2023-02-22T21:11:30.698Z,56.89
2023-02-22T21:13:57.510Z,58.89
2023-02-22T21:16:31.374Z,61.41
2023-02-22T21:19:01.790Z,62.79
2023-02-22T21:21:29.304Z,58.86
2023-02-22T21:24:00.875Z,57.37
2023-02-22T21:26:30.975Z,59.45
2023-02-22T21:29:04.050Z,62.00
2023-02-22T21:31:32.309Z,63.33
2023-02-22T21:33:59.759Z,60.26
2023-02-22T21:36:27.680Z,56.32
2023-02-22T21:38:57.600Z,57.36
2023-02-22T21:41:28.231Z,60.15
2023-02-22T21:43:56.680Z,62.49
2023-02-22T21:46:25.460Z,61.53
2023-02-22T21:48:52.167Z,56.75
2023-02-22T21:51:22.693Z,57.21
2023-02-22T21:53:52.816Z,59.54
2023-02-22T21:56:29.495Z,61.69
2023-02-22T21:59:06.787Z,62.31
2023-02-22T22:01:49.258Z,63.15
2023-02-22T22:04:19.512Z,58.58
2023-02-22T22:06:51.362Z,57.53
2023-02-22T22:09:19.275Z,59.58
2023-02-22T22:11:53.848Z,61.10
2023-02-22T22:14:23.665Z,62.85
2023-02-22T22:16:55.246Z,60.90
2023-02-22T22:19:22.225Z,56.76
2023-02-22T22:21:52.729Z,57.12
2023-02-22T22:24:21.793Z,59.77
2023-02-22T22:26:50.595Z,61.73
2023-02-22T22:29:18.018Z,63.07
2023-02-22T22:31:45.475Z,59.88
2023-02-22T22:34:12.299Z,56.00
2023-02-22T22:36:38.967Z,57.48
2023-02-22T22:39:12.339Z,59.97
2023-02-22T22:41:41.797Z,61.57
2023-02-22T22:44:09.302Z,63.20
2023-02-22T22:46:39.081Z,58.61
2023-02-22T22:49:12.638Z,57.72
2023-02-22T22:51:46.697Z,59.71
2023-02-22T22:54:13.270Z,61.52
2023-02-22T22:56:39.808Z,63.05
2023-02-22T22:59:08.916Z,59.37
2023-02-22T23:01:39.989Z,57.19
2023-02-22T23:04:10.955Z,58.99
2023-02-22T23:06:41.336Z,61.03
2023-02-22T23:09:21.067Z,62.54
2023-02-22T23:11:57.080Z,60.38
2023-02-22T23:14:30.407Z,57.97
2023-02-22T23:17:02.521Z,59.46
2023-02-22T23:19:30.685Z,61.49
2023-02-22T23:21:58.477Z,62.83
2023-02-22T23:24:26.826Z,58.64
2023-02-22T23:26:59.302Z,57.02
2023-02-22T23:29:28.073Z,59.35
2023-02-22T23:31:55.070Z,61.36
2023-02-22T23:34:22.696Z,62.64
2023-02-22T23:36:53.480Z,61.69
2023-02-22T23:39:22.354Z,57.46
2023-02-22T23:41:54.494Z,56.42
2023-02-22T23:44:21.552Z,58.57
2023-02-22T23:46:54.333Z,60.25
2023-02-22T23:49:37.249Z,61.70
2023-02-22T23:52:05.830Z,63.45
2023-02-22T23:54:35.761Z,60.33
2023-02-22T23:57:03.554Z,56.38
2023-02-22T23:59:30.720Z,58.02
